sensor_id;sensor_type;location;lat;lon;timestamp;P1;durP1;ratioP1;P2;durP2;ratioP2
20365;SDS011;10341;49.894;8.822;2023-02-01T00:00:42;8.35;;;4.47;;
20365;SDS011;10341;49.894;8.822;2023-02-01T00:06:02;7.57;;;4.53;;
20365;SDS011;10341;49.894;8.822;2023-02-01T00:11:22;7.32;;;4.70;;
20365;SDS011;10341;49.894;8.822;2023-02-01T00:16:42;8.93;;;5.25;;
20365;SDS011;10341;49.894;8.822;2023-02-01T00:22:02;7.35;;;5.00;;
20365;SDS011;10341;49.894;8.822;2023-02-01T00:27:22;7.90;;;4.55;;
20365;SDS011;10341;49.894;8.822;2023-02-01T00:32:41;11.40;;;5.35;;
20365;SDS011;10341;49.894;8.822;2023-02-01T00:38:01;10.82;;;5.53;;
20365;SDS011;10341;49.894;8.822;2023-02-01T00:43:21;7.40;;;4.78;;
20365;SDS011;10341;49.894;8.822;2023-02-01T00:48:40;8.02;;;5.03;;
20365;SDS011;10341;49.894;8.822;2023-02-01T00:54:00;7.65;;;5.20;;
20365;SDS011;10341;49.894;8.822;2023-02-01T00:59:20;7.07;;;4.82;;
20365;SDS011;10341;49.894;8.822;2023-02-01T01:04:39;8.60;;;5.20;;
20365;SDS011;10341;49.894;8.822;2023-02-01T01:09:59;10.27;;;5.38;;
20365;SDS011;10341;49.894;8.822;2023-02-01T01:15:19;8.82;;;5.38;;
20365;SDS011;10341;49.894;8.822;2023-02-01T01:20:40;11.35;;;6.10;;
20365;SDS011;10341;49.894;8.822;2023-02-01T01:26:00;13.20;;;5.95;;
20365;SDS011;10341;49.894;8.822;2023-02-01T01:31:23;10.73;;;5.30;;
20365;SDS011;10341;49.894;8.822;2023-02-01T01:36:43;13.02;;;5.85;;
20365;SDS011;10341;49.894;8.822;2023-02-01T01:42:02;11.30;;;6.20;;
20365;SDS011;10341;49.894;8.822;2023-02-01T01:52:42;10.30;;;6.00;;
20365;SDS011;10341;49.894;8.822;2023-02-01T01:58:06;9.57;;;6.05;;
20365;SDS011;10341;49.894;8.822;2023-02-01T02:03:37;9.75;;;5.95;;
20365;SDS011;10341;49.894;8.822;2023-02-01T02:09:01;11.63;;;6.38;;
20365;SDS011;10341;49.894;8.822;2023-02-01T02:14:21;9.90;;;6.47;;
20365;SDS011;10341;49.894;8.822;2023-02-01T02:19:48;10.38;;;6.40;;
20365;SDS011;10341;49.894;8.822;2023-02-01T02:25:46;11.02;;;6.30;;
20365;SDS011;10341;49.894;8.822;2023-02-01T02:31:25;11.73;;;6.68;;
20365;SDS011;10341;49.894;8.822;2023-02-01T02:54:19;10.73;;;5.68;;
20365;SDS011;10341;49.894;8.822;2023-02-01T03:00:10;10.35;;;5.57;;
20365;SDS011;10341;49.894;8.822;2023-02-01T03:05:52;9.63;;;5.97;;
20365;SDS011;10341;49.894;8.822;2023-02-01T03:11:13;5.05;;;2.70;;
20365;SDS011;10341;49.894;8.822;2023-02-01T03:16:36;6.20;;;2.60;;
20365;SDS011;10341;49.894;8.822;2023-02-01T03:22:08;3.83;;;1.98;;
20365;SDS011;10341;49.894;8.822;2023-02-01T03:28:06;3.47;;;1.73;;
20365;SDS011;10341;49.894;8.822;2023-02-01T03:33:23;5.13;;;1.85;;
20365;SDS011;10341;49.894;8.822;2023-02-01T03:38:55;2.50;;;1.80;;
20365;SDS011;10341;49.894;8.822;2023-02-01T03:44:32;4.10;;;1.80;;
20365;SDS011;10341;49.894;8.822;2023-02-01T03:49:57;4.47;;;2.70;;
20365;SDS011;10341;49.894;8.822;2023-02-01T03:55:22;5.60;;;3.50;;
20365;SDS011;10341;49.894;8.822;2023-02-01T04:00:44;6.22;;;4.05;;
20365;SDS011;10341;49.894;8.822;2023-02-01T04:06:10;6.55;;;4.60;;
20365;SDS011;10341;49.894;8.822;2023-02-01T04:11:29;6.97;;;4.13;;
20365;SDS011;10341;49.894;8.822;2023-02-01T04:16:49;6.75;;;4.20;;
20365;SDS011;10341;49.894;8.822;2023-02-01T04:22:09;11.05;;;5.30;;
20365;SDS011;10341;49.894;8.822;2023-02-01T04:27:28;10.30;;;5.75;;
20365;SDS011;10341;49.894;8.822;2023-02-01T04:32:47;9.63;;;5.77;;
20365;SDS011;10341;49.894;8.822;2023-02-01T04:38:07;11.40;;;5.78;;
20365;SDS011;10341;49.894;8.822;2023-02-01T04:43:26;11.50;;;6.00;;
20365;SDS011;10341;49.894;8.822;2023-02-01T04:48:46;11.95;;;6.47;;
20365;SDS011;10341;49.894;8.822;2023-02-01T04:54:06;9.52;;;5.60;;
20365;SDS011;10341;49.894;8.822;2023-02-01T04:59:25;10.63;;;5.88;;
20365;SDS011;10341;49.894;8.822;2023-02-01T05:04:45;10.25;;;5.60;;
20365;SDS011;10341;49.894;8.822;2023-02-01T05:10:05;9.05;;;5.50;;
20365;SDS011;10341;49.894;8.822;2023-02-01T05:15:25;10.38;;;5.20;;
20365;SDS011;10341;49.894;8.822;2023-02-01T05:20:44;10.43;;;5.00;;
20365;SDS011;10341;49.894;8.822;2023-02-01T05:26:05;10.23;;;5.18;;
20365;SDS011;10341;49.894;8.822;2023-02-01T05:31:24;7.25;;;4.05;;
20365;SDS011;10341;49.894;8.822;2023-02-01T05:36:43;7.97;;;3.78;;
20365;SDS011;10341;49.894;8.822;2023-02-01T05:42:03;13.37;;;4.07;;
20365;SDS011;10341;49.894;8.822;2023-02-01T05:47:22;7.57;;;3.55;;
20365;SDS011;10341;49.894;8.822;2023-02-01T05:52:42;8.75;;;3.40;;
20365;SDS011;10341;49.894;8.822;2023-02-01T05:58:02;7.13;;;3.15;;
20365;SDS011;10341;49.894;8.822;2023-02-01T06:03:21;10.60;;;2.78;;
20365;SDS011;10341;49.894;8.822;2023-02-01T06:08:41;5.88;;;2.42;;
20365;SDS011;10341;49.894;8.822;2023-02-01T06:14:00;8.07;;;1.98;;
20365;SDS011;10341;49.894;8.822;2023-02-01T06:19:20;4.70;;;1.90;;
20365;SDS011;10341;49.894;8.822;2023-02-01T06:24:40;3.85;;;1.88;;
20365;SDS011;10341;49.894;8.822;2023-02-01T06:30:00;5.85;;;2.05;;
20365;SDS011;10341;49.894;8.822;2023-02-01T06:35:20;4.47;;;1.90;;
20365;SDS011;10341;49.894;8.822;2023-02-01T06:40:40;5.13;;;1.67;;
20365;SDS011;10341;49.894;8.822;2023-02-01T06:46:01;3.33;;;2.00;;
20365;SDS011;10341;49.894;8.822;2023-02-01T06:51:23;6.57;;;1.88;;
20365;SDS011;10341;49.894;8.822;2023-02-01T06:56:44;4.68;;;2.08;;
20365;SDS011;10341;49.894;8.822;2023-02-01T07:02:04;6.97;;;3.38;;
20365;SDS011;10341;49.894;8.822;2023-02-01T07:07:23;5.85;;;2.38;;
20365;SDS011;10341;49.894;8.822;2023-02-01T07:12:43;7.10;;;2.22;;
20365;SDS011;10341;49.894;8.822;2023-02-01T07:18:03;6.43;;;2.92;;
20365;SDS011;10341;49.894;8.822;2023-02-01T07:23:22;6.82;;;2.58;;
20365;SDS011;10341;49.894;8.822;2023-02-01T07:28:42;5.60;;;2.13;;
20365;SDS011;10341;49.894;8.822;2023-02-01T07:34:02;7.05;;;1.95;;
20365;SDS011;10341;49.894;8.822;2023-02-01T07:39:21;6.00;;;2.17;;
20365;SDS011;10341;49.894;8.822;2023-02-01T07:44:41;5.97;;;2.30;;
20365;SDS011;10341;49.894;8.822;2023-02-01T07:50:00;4.65;;;2.08;;
20365;SDS011;10341;49.894;8.822;2023-02-01T07:55:20;3.65;;;1.98;;
20365;SDS011;10341;49.894;8.822;2023-02-01T08:00:40;4.15;;;1.90;;
20365;SDS011;10341;49.894;8.822;2023-02-01T08:06:19;7.05;;;2.05;;
20365;SDS011;10341;49.894;8.822;2023-02-01T08:11:39;4.40;;;2.10;;
20365;SDS011;10341;49.894;8.822;2023-02-01T08:16:58;7.05;;;2.28;;
20365;SDS011;10341;49.894;8.822;2023-02-01T08:22:18;8.18;;;2.10;;
20365;SDS011;10341;49.894;8.822;2023-02-01T08:27:37;5.97;;;2.40;;
20365;SDS011;10341;49.894;8.822;2023-02-01T08:32:57;7.55;;;2.50;;
20365;SDS011;10341;49.894;8.822;2023-02-01T08:38:17;5.82;;;2.10;;
20365;SDS011;10341;49.894;8.822;2023-02-01T08:43:36;5.10;;;2.25;;
20365;SDS011;10341;49.894;8.822;2023-02-01T08:54:16;8.00;;;2.30;;
20365;SDS011;10341;49.894;8.822;2023-02-01T08:59:36;8.07;;;2.13;;
20365;SDS011;10341;49.894;8.822;2023-02-01T09:04:55;8.18;;;2.35;;
20365;SDS011;10341;49.894;8.822;2023-02-01T09:15:34;7.78;;;2.20;;
20365;SDS011;10341;49.894;8.822;2023-02-01T09:20:55;10.55;;;2.05;;
20365;SDS011;10341;49.894;8.822;2023-02-01T09:26:15;8.60;;;2.10;;
20365;SDS011;10341;49.894;8.822;2023-02-01T09:31:34;5.03;;;1.90;;
20365;SDS011;10341;49.894;8.822;2023-02-01T09:36:54;6.30;;;1.90;;
20365;SDS011;10341;49.894;8.822;2023-02-01T09:47:39;7.88;;;2.17;;
20365;SDS011;10341;49.894;8.822;2023-02-01T09:58:52;8.18;;;1.70;;
20365;SDS011;10341;49.894;8.822;2023-02-01T10:04:36;6.43;;;1.80;;
20365;SDS011;10341;49.894;8.822;2023-02-01T10:21:49;7.25;;;1.95;;
20365;SDS011;10341;49.894;8.822;2023-02-01T10:27:16;7.68;;;2.03;;
20365;SDS011;10341;49.894;8.822;2023-02-01T10:32:39;9.25;;;2.10;;
20365;SDS011;10341;49.894;8.822;2023-02-01T10:38:00;7.50;;;1.67;;
20365;SDS011;10341;49.894;8.822;2023-02-01T10:43:21;7.82;;;1.83;;
20365;SDS011;10341;49.894;8.822;2023-02-01T10:48:41;8.93;;;1.98;;
20365;SDS011;10341;49.894;8.822;2023-02-01T10:54:08;9.00;;;1.80;;
20365;SDS011;10341;49.894;8.822;2023-02-01T10:59:35;4.20;;;1.70;;
20365;SDS011;10341;49.894;8.822;2023-02-01T11:05:02;12.80;;;2.20;;
20365;SDS011;10341;49.894;8.822;2023-02-01T11:10:37;7.75;;;1.70;;
20365;SDS011;10341;49.894;8.822;2023-02-01T11:15:59;8.90;;;2.08;;
20365;SDS011;10341;49.894;8.822;2023-02-01T11:21:22;7.20;;;2.00;;
20365;SDS011;10341;49.894;8.822;2023-02-01T11:26:41;11.95;;;2.90;;
20365;SDS011;10341;49.894;8.822;2023-02-01T11:32:01;6.15;;;1.90;;
20365;SDS011;10341;49.894;8.822;2023-02-01T11:37:24;8.10;;;1.83;;
20365;SDS011;10341;49.894;8.822;2023-02-01T11:48:33;6.70;;;1.70;;
20365;SDS011;10341;49.894;8.822;2023-02-01T11:54:06;5.05;;;1.63;;
20365;SDS011;10341;49.894;8.822;2023-02-01T12:05:39;10.35;;;1.77;;
20365;SDS011;10341;49.894;8.822;2023-02-01T12:11:18;8.85;;;1.65;;
20365;SDS011;10341;49.894;8.822;2023-02-01T12:22:41;8.23;;;1.60;;
20365;SDS011;10341;49.894;8.822;2023-02-01T12:40:28;4.35;;;1.50;;
20365;SDS011;10341;49.894;8.822;2023-02-01T12:46:02;10.18;;;1.75;;
20365;SDS011;10341;49.894;8.822;2023-02-01T12:51:33;4.70;;;1.67;;
20365;SDS011;10341;49.894;8.822;2023-02-01T12:57:05;7.38;;;2.20;;
20365;SDS011;10341;49.894;8.822;2023-02-01T13:02:43;5.32;;;1.70;;
20365;SDS011;10341;49.894;8.822;2023-02-01T13:08:14;6.55;;;2.15;;
20365;SDS011;10341;49.894;8.822;2023-02-01T13:13:51;7.78;;;2.72;;
20365;SDS011;10341;49.894;8.822;2023-02-01T13:19:41;6.25;;;1.70;;
20365;SDS011;10341;49.894;8.822;2023-02-01T13:25:18;10.05;;;1.73;;
20365;SDS011;10341;49.894;8.822;2023-02-01T13:36:59;5.35;;;1.90;;
20365;SDS011;10341;49.894;8.822;2023-02-01T13:42:26;5.13;;;1.65;;
20365;SDS011;10341;49.894;8.822;2023-02-01T13:47:53;5.07;;;1.83;;
20365;SDS011;10341;49.894;8.822;2023-02-01T13:53:16;8.63;;;1.75;;
20365;SDS011;10341;49.894;8.822;2023-02-01T13:58:40;9.00;;;2.03;;
20365;SDS011;10341;49.894;8.822;2023-02-01T14:04:02;6.50;;;1.70;;
20365;SDS011;10341;49.894;8.822;2023-02-01T14:09:35;7.82;;;1.58;;
20365;SDS011;10341;49.894;8.822;2023-02-01T14:20:44;6.45;;;1.55;;
20365;SDS011;10341;49.894;8.822;2023-02-01T14:26:08;4.47;;;1.50;;
20365;SDS011;10341;49.894;8.822;2023-02-01T14:31:34;9.45;;;2.97;;
20365;SDS011;10341;49.894;8.822;2023-02-01T14:37:07;4.93;;;2.00;;
20365;SDS011;10341;49.894;8.822;2023-02-01T14:53:32;6.32;;;2.17;;
20365;SDS011;10341;49.894;8.822;2023-02-01T14:58:57;6.35;;;2.28;;
20365;SDS011;10341;49.894;8.822;2023-02-01T15:04:24;7.78;;;2.10;;
20365;SDS011;10341;49.894;8.822;2023-02-01T15:09:45;9.88;;;1.88;;
20365;SDS011;10341;49.894;8.822;2023-02-01T15:15:17;7.13;;;1.65;;
20365;SDS011;10341;49.894;8.822;2023-02-01T15:20:37;7.32;;;2.05;;
20365;SDS011;10341;49.894;8.822;2023-02-01T15:25:56;6.20;;;1.50;;
20365;SDS011;10341;49.894;8.822;2023-02-01T15:31:30;5.50;;;1.90;;
20365;SDS011;10341;49.894;8.822;2023-02-01T15:36:54;6.45;;;1.65;;
20365;SDS011;10341;49.894;8.822;2023-02-01T15:42:24;4.75;;;1.60;;
20365;SDS011;10341;49.894;8.822;2023-02-01T15:47:46;9.20;;;1.93;;
20365;SDS011;10341;49.894;8.822;2023-02-01T15:53:10;6.45;;;2.05;;
20365;SDS011;10341;49.894;8.822;2023-02-01T15:58:36;7.03;;;2.30;;
20365;SDS011;10341;49.894;8.822;2023-02-01T16:04:23;8.65;;;1.92;;
